Terminal Aerodrome Forecast
Issued by NWS

Home | Current Version | Previous Version | Text Only | Print | Product List | Glossary On
Versions: 1 2 3 4 5 6 7 8 9 10 11 12 13 14 15 16 17
000
FTUS43 KDTX 250950 AAA
TAFDET
TAF AMD
KDET 250950Z 2510/2606 21004KT 6SM BR SCT060 BKN100
     FM251200 23010KT P6SM SCT025 OVC040
     FM251600 27014G22KT P6SM BKN025
     FM251900 27015G24KT P6SM SKC
     FM260000 28010KT P6SM SKC=

USA.gov is the U.S. government's official web portal to all federal, state and local government web resources and services.